Star Princess — ZCDD6 — position and weather

sailwx.info

Track history (hours):
 
Tides and Currents Weather Stations Pressure Air Temp Water Temp Dewpoint Dewpoint Depression Visibility Wind Speed Wind Dir Waves Ship Positions

Star Princess

Operator: Princess Cruises

Last reported at 2016-Feb-06 09:00 UTC. Time now 2016-Feb-06 23:14 UTC.
Position S 45°24' W 062°18'.

Length 289.6 m; beam 36 m; draft 8.4 m.

Type: Ship. MMSI: 310361000.

Wind from 050 at 10 knots

Waves 1.5 meters (5 feet), 5 second period

Barometer 1029.4 mb
Air temperature 12.0 ° C
Visibility: greater than 10.8 NM
Dewpoint 6.8 ° C
Water temperature 17.0 ° C

Date/timePositionNaut miles runAvg speedWind from/ knotsBaromVisibWave heightAir tempDewpointWater temp
2016-Feb-06 09:00S 45°24' W 062°18'   050 / 101029.410.8 1.512.0 6.817.0
2016-Feb-03 22:33S 35°01' W 056°05'9 4.4
2016-Feb-03 20:27S 34°54' W 056°13'13 1.3
2016-Feb-03 10:20S 35°05' W 056°04'7310.3
2016-Feb-03 03:13S 34°47' W 057°31'5 7.1
2016-Feb-03 02:33S 34°45' W 057°36'8 7.7
2016-Feb-03 01:33S 34°44' W 057°46'7 6.6
2016-Feb-03 00:33S 34°42' W 057°53'1413.6
2016-Feb-02 23:33S 34°38' W 058°09'11 9.8
2016-Feb-02 22:28S 34°35' W 058°22'1 0.7
2016-Feb-02 21:24S 34°35' W 058°22'0 0.0
2016-Feb-01 10:25S 34°35' W 058°22'0 0.0
2016-Jan-31 10:23S 34°35' W 058°22'1 1.6
2016-Jan-31 09:33S 34°36' W 058°21'1010.3
2016-Jan-31 08:33S 34°38' W 058°09'1212.5
2016-Jan-31 07:33S 34°42' W 057°55'1212.2
2016-Jan-31 06:33S 34°44' W 057°40'6310.5
2016-Jan-31 00:33S 35°10' W 056°30'42710.0
2016-Jan-29 06:00S 41°12' W 061°18'37310.4 010 / 201008.810.8 0.519.515.318.0
2016-Jan-27 18:00S 47°24' W 060°48'   010 / 171007.2 5.4 1.014.012.216.0
Track history (hours):
 
Tides and Currents Weather Stations Pressure Air Temp Water Temp Dewpoint Dewpoint Depression Visibility Wind Speed Wind Dir Waves Ship Positions

Star Princess

Operator: Princess Cruises

Last reported at 2016-Feb-06 09:00 UTC. Time now 2016-Feb-06 23:14 UTC.
Position S 45°24' W 062°18'.

Length 289.6 m; beam 36 m; draft 8.4 m.

Type: Ship. MMSI: 310361000.

Wind from 050 at 10 knots

Waves 1.5 meters (5 feet), 5 second period

Barometer 1029.4 mb
Air temperature 12.0 ° C
Visibility: greater than 10.8 NM
Dewpoint 6.8 ° C
Water temperature 17.0 ° C

Date/timePositionNaut miles runAvg speedWind from/ knotsBaromVisibWave heightAir tempDewpointWater temp
2016-Feb-06 09:00S 45°24' W 062°18'   050 / 101029.410.8 1.512.0 6.817.0
2016-Feb-03 22:33S 35°01' W 056°05'9 4.4
2016-Feb-03 20:27S 34°54' W 056°13'13 1.3
2016-Feb-03 10:20S 35°05' W 056°04'7310.3
2016-Feb-03 03:13S 34°47' W 057°31'5 7.1
2016-Feb-03 02:33S 34°45' W 057°36'8 7.7
2016-Feb-03 01:33S 34°44' W 057°46'7 6.6
2016-Feb-03 00:33S 34°42' W 057°53'1413.6
2016-Feb-02 23:33S 34°38' W 058°09'11 9.8
2016-Feb-02 22:28S 34°35' W 058°22'1 0.7
2016-Feb-02 21:24S 34°35' W 058°22'0 0.0
2016-Feb-01 10:25S 34°35' W 058°22'0 0.0
2016-Jan-31 10:23S 34°35' W 058°22'1 1.6
2016-Jan-31 09:33S 34°36' W 058°21'1010.3
2016-Jan-31 08:33S 34°38' W 058°09'1212.5
2016-Jan-31 07:33S 34°42' W 057°55'1212.2
2016-Jan-31 06:33S 34°44' W 057°40'6310.5
2016-Jan-31 00:33S 35°10' W 056°30'42710.0
2016-Jan-29 06:00S 41°12' W 061°18'37310.4 010 / 201008.810.8 0.519.515.318.0
2016-Jan-27 18:00S 47°24' W 060°48'   010 / 171007.2 5.4 1.014.012.216.0

Dump ship's entire track history